createdAt,value
2023-05-15T00:00:52.835Z,49.50
2023-05-15T00:03:21.332Z,50.18
2023-05-15T00:05:49.424Z,49.60
2023-05-15T00:08:17.440Z,49.63
2023-05-15T00:10:54.085Z,50.08
2023-05-15T00:13:30.027Z,50.00
2023-05-15T00:15:58.082Z,49.91
2023-05-15T00:18:26.205Z,49.66
2023-05-15T00:20:54.183Z,49.93
2023-05-15T00:23:22.269Z,49.81
2023-05-15T00:25:50.265Z,50.09
2023-05-15T00:28:18.302Z,49.94
2023-05-15T00:30:47.717Z,50.00
2023-05-15T00:33:15.724Z,50.11
2023-05-15T00:35:44.198Z,49.95
2023-05-15T00:38:12.361Z,49.56
2023-05-15T00:40:40.415Z,49.83
2023-05-15T00:43:08.421Z,50.14
2023-05-15T00:45:38.542Z,49.66
2023-05-15T00:48:08.979Z,49.73
2023-05-15T00:50:37.063Z,49.69
2023-05-15T00:53:06.223Z,49.97
2023-05-15T00:55:34.800Z,50.26
2023-05-15T00:58:03.032Z,49.85
2023-05-15T01:00:33.734Z,50.00
2023-05-15T01:03:02.026Z,49.70
2023-05-15T01:05:31.605Z,49.97
2023-05-15T01:08:04.839Z,49.89
2023-05-15T01:10:33.114Z,50.24
2023-05-15T01:13:01.153Z,50.14
2023-05-15T01:15:29.221Z,49.69
2023-05-15T01:17:57.275Z,49.92
2023-05-15T01:20:25.342Z,49.66
2023-05-15T01:22:56.930Z,49.59
2023-05-15T01:25:48.168Z,49.82
2023-05-15T01:28:19.764Z,50.15
2023-05-15T01:30:47.818Z,49.98
2023-05-15T01:33:19.184Z,49.55
2023-05-15T01:35:51.925Z,49.81
2023-05-15T01:38:23.085Z,49.97
2023-05-15T01:40:53.830Z,49.74
2023-05-15T01:43:24.024Z,50.27
2023-05-15T01:45:52.138Z,49.82
2023-05-15T01:48:20.149Z,49.88
2023-05-15T01:50:48.266Z,49.64
2023-05-15T01:53:16.230Z,49.69
2023-05-15T01:55:44.298Z,49.93
2023-05-15T01:58:12.307Z,50.29
2023-05-15T02:00:41.711Z,49.71
2023-05-15T02:03:09.889Z,49.94
2023-05-15T02:05:37.965Z,50.11
2023-05-15T02:08:06.329Z,50.26
2023-05-15T02:10:34.382Z,49.71
2023-05-15T02:13:02.461Z,50.24
2023-05-15T02:15:30.490Z,49.71
2023-05-15T02:17:59.972Z,49.51
2023-05-15T02:20:28.099Z,49.79
2023-05-15T02:22:56.142Z,49.95
2023-05-15T02:25:33.468Z,50.21
2023-05-15T02:28:01.913Z,50.07
2023-05-15T02:30:36.350Z,49.66
2023-05-15T02:33:13.714Z,50.18
2023-05-15T02:35:46.838Z,50.10
2023-05-15T02:38:17.082Z,50.15
2023-05-15T02:40:45.662Z,50.16
2023-05-15T02:43:13.764Z,49.67
2023-05-15T02:45:42.816Z,49.71
2023-05-15T02:48:12.191Z,49.47
2023-05-15T02:50:40.255Z,50.08
2023-05-15T02:53:09.872Z,49.77
2023-05-15T02:55:38.852Z,49.97
2023-05-15T02:58:06.969Z,50.01
2023-05-15T03:00:35.096Z,50.21
2023-05-15T03:03:03.281Z,49.76
2023-05-15T03:05:32.772Z,49.89
2023-05-15T03:08:01.372Z,49.63
2023-05-15T03:10:29.400Z,50.09
2023-05-15T03:12:59.077Z,49.97
2023-05-15T03:15:27.497Z,49.93
2023-05-15T03:17:55.879Z,49.56
2023-05-15T03:20:23.970Z,50.04
2023-05-15T03:22:53.409Z,50.00
2023-05-15T03:25:21.528Z,49.73
2023-05-15T03:27:49.554Z,49.89
2023-05-15T03:30:17.531Z,49.97
2023-05-15T03:32:45.641Z,49.80
2023-05-15T03:35:13.847Z,49.68
2023-05-15T03:37:41.854Z,49.52
2023-05-15T03:40:12.593Z,49.76
2023-05-15T03:42:40.626Z,49.83
2023-05-15T03:45:10.006Z,49.75
2023-05-15T03:47:38.035Z,49.66
2023-05-15T03:50:07.007Z,49.42
2023-05-15T03:52:35.027Z,49.24
2023-05-15T03:55:02.987Z,49.28
2023-05-15T03:57:33.361Z,49.61
2023-05-15T04:00:03.969Z,49.56
2023-05-15T04:02:40.969Z,48.31
2023-05-15T04:05:09.783Z,47.20
2023-05-15T04:07:37.929Z,47.33
2023-05-15T04:10:06.738Z,47.18
2023-05-15T04:12:36.325Z,47.88
2023-05-15T04:15:18.154Z,47.89
2023-05-15T04:17:46.629Z,47.55
2023-05-15T04:20:15.461Z,47.31
2023-05-15T04:22:43.680Z,47.65
2023-05-15T04:25:12.096Z,46.57
2023-05-15T04:27:41.723Z,47.14
2023-05-15T04:30:10.481Z,46.58
2023-05-15T04:32:38.931Z,46.77
2023-05-15T04:35:10.196Z,46.94
2023-05-15T04:37:38.458Z,47.38
2023-05-15T04:40:08.291Z,47.01
2023-05-15T04:42:37.193Z,46.61
2023-05-15T04:45:09.243Z,47.04
2023-05-15T04:47:37.527Z,46.70
2023-05-15T04:50:06.785Z,46.70
2023-05-15T04:52:34.935Z,47.36
2023-05-15T04:55:03.485Z,47.12
2023-05-15T04:57:31.611Z,47.35
2023-05-15T04:59:59.628Z,46.81
2023-05-15T05:02:29.063Z,47.01
2023-05-15T05:04:57.083Z,47.14
2023-05-15T05:07:25.108Z,47.15
2023-05-15T05:09:53.095Z,47.25
2023-05-15T05:12:21.162Z,46.71
2023-05-15T05:14:49.361Z,46.14
2023-05-15T05:17:17.444Z,46.61
2023-05-15T05:19:46.801Z,46.13
2023-05-15T05:22:14.810Z,45.90
2023-05-15T05:24:42.870Z,45.84
2023-05-15T05:27:11.063Z,45.63
2023-05-15T05:29:39.990Z,45.64
2023-05-15T05:32:08.721Z,45.43
2023-05-15T05:34:36.758Z,45.97
2023-05-15T05:37:06.506Z,46.07
2023-05-15T05:39:34.717Z,45.86
2023-05-15T05:42:02.713Z,45.39
2023-05-15T05:44:30.904Z,45.42
2023-05-15T05:46:58.924Z,46.16
2023-05-15T05:49:26.957Z,45.77
2023-05-15T05:51:55.018Z,45.96
2023-05-15T05:54:24.557Z,45.63
2023-05-15T05:56:52.520Z,45.49
2023-05-15T05:59:20.546Z,45.86
2023-05-15T06:01:50.849Z,45.47
2023-05-15T06:04:19.929Z,45.83
2023-05-15T06:06:47.905Z,45.82
2023-05-15T06:09:16.628Z,46.06
2023-05-15T06:11:46.530Z,46.46
2023-05-15T06:14:14.551Z,46.53
2023-05-15T06:16:42.558Z,46.14
2023-05-15T06:19:10.893Z,46.67
2023-05-15T06:21:38.905Z,46.64
2023-05-15T06:24:07.457Z,46.92
2023-05-15T06:26:35.425Z,47.00
2023-05-15T06:29:04.845Z,47.63
2023-05-15T06:31:32.948Z,46.92
2023-05-15T06:34:00.981Z,47.10
2023-05-15T06:36:29.030Z,47.15
2023-05-15T06:38:57.037Z,47.50
2023-05-15T06:41:25.100Z,47.45
2023-05-15T06:43:53.069Z,47.94
2023-05-15T06:46:22.666Z,47.31
2023-05-15T06:48:50.656Z,47.47
2023-05-15T06:51:18.691Z,47.64
2023-05-15T06:53:46.672Z,47.78
2023-05-15T06:56:14.785Z,47.88
2023-05-15T06:58:42.804Z,47.47
2023-05-15T07:01:10.840Z,47.97
2023-05-15T07:03:40.256Z,48.14
2023-05-15T07:06:08.494Z,48.13
2023-05-15T07:08:36.497Z,47.90
2023-05-15T07:11:05.114Z,47.91
2023-05-15T07:13:34.246Z,47.62
2023-05-15T07:16:02.345Z,47.98
2023-05-15T07:18:31.410Z,47.24
2023-05-15T07:21:00.897Z,47.15
2023-05-15T07:23:28.925Z,47.44
2023-05-15T07:25:56.999Z,47.93
2023-05-15T07:28:24.974Z,47.29
2023-05-15T07:30:53.330Z,47.65
2023-05-15T07:33:21.362Z,47.45
2023-05-15T07:35:49.386Z,47.51
2023-05-15T07:38:18.813Z,47.46
2023-05-15T07:40:46.848Z,47.88
2023-05-15T07:43:14.813Z,47.99
2023-05-15T07:45:43.093Z,48.11
2023-05-15T07:48:18.282Z,47.78
2023-05-15T07:50:46.476Z,47.71
2023-05-15T07:53:16.795Z,48.35
2023-05-15T07:55:46.300Z,48.41
2023-05-15T07:58:14.544Z,48.14
2023-05-15T08:00:42.641Z,48.17
2023-05-15T08:03:11.726Z,48.30
2023-05-15T08:05:39.995Z,47.96
2023-05-15T08:08:08.049Z,47.78
2023-05-15T08:10:36.051Z,47.84
2023-05-15T08:13:05.438Z,47.72
2023-05-15T08:15:33.504Z,47.52
2023-05-15T08:18:01.757Z,47.70
2023-05-15T08:20:29.864Z,47.83
2023-05-15T08:22:57.919Z,48.30
2023-05-15T08:25:26.398Z,48.21
2023-05-15T08:27:54.616Z,48.17
2023-05-15T08:30:24.407Z,48.40
2023-05-15T08:32:52.540Z,48.41
2023-05-15T08:35:20.600Z,47.85
2023-05-15T08:37:48.641Z,48.40
2023-05-15T08:40:17.018Z,48.43
2023-05-15T08:42:48.912Z,48.53
2023-05-15T08:45:16.952Z,48.66
2023-05-15T08:47:46.501Z,48.27
2023-05-15T08:50:15.531Z,48.23
2023-05-15T08:52:44.049Z,48.10
2023-05-15T08:55:12.014Z,48.18
2023-05-15T08:57:40.080Z,48.08
2023-05-15T09:00:09.451Z,48.30
2023-05-15T09:02:37.808Z,49.03
2023-05-15T09:05:08.298Z,48.50
2023-05-15T09:07:36.371Z,49.01
2023-05-15T09:10:04.716Z,48.38
2023-05-15T09:12:34.187Z,48.78
2023-05-15T09:15:12.197Z,48.39
2023-05-15T09:17:40.400Z,49.04
2023-05-15T09:20:25.535Z,48.93
2023-05-15T09:22:53.594Z,48.86
2023-05-15T09:25:34.428Z,48.51
2023-05-15T09:28:02.553Z,47.96
2023-05-15T09:30:31.225Z,47.49
2023-05-15T09:33:01.397Z,48.08
2023-05-15T09:35:34.691Z,47.54
2023-05-15T09:38:03.167Z,48.02
2023-05-15T09:40:31.677Z,47.41
2023-05-15T09:42:59.810Z,47.19
2023-05-15T09:45:30.127Z,47.59
2023-05-15T09:47:58.662Z,47.62
2023-05-15T09:50:34.003Z,47.83
2023-05-15T09:53:03.433Z,48.18
2023-05-15T09:55:32.881Z,47.48
2023-05-15T09:58:07.910Z,47.38
2023-05-15T10:00:36.036Z,47.52
2023-05-15T10:03:04.683Z,47.44
2023-05-15T10:05:43.169Z,47.26
2023-05-15T10:08:15.017Z,46.80
2023-05-15T10:10:43.320Z,46.91
2023-05-15T10:13:11.423Z,47.53
2023-05-15T10:15:39.999Z,47.25
2023-05-15T10:18:08.074Z,47.99
2023-05-15T10:20:36.583Z,47.33
2023-05-15T10:23:05.581Z,47.05
2023-05-15T10:25:40.025Z,46.47
2023-05-15T10:28:09.817Z,46.49
2023-05-15T10:30:37.996Z,45.73
2023-05-15T10:33:06.740Z,46.09
2023-05-15T10:35:36.306Z,45.63
2023-05-15T10:38:05.661Z,45.77
2023-05-15T10:40:35.932Z,45.75
2023-05-15T10:43:03.907Z,45.58
2023-05-15T10:45:31.951Z,45.88
2023-05-15T10:48:00.039Z,45.16
2023-05-15T10:50:28.384Z,45.18
2023-05-15T10:52:56.677Z,45.57
2023-05-15T10:55:24.773Z,45.83
2023-05-15T10:57:54.967Z,45.70
2023-05-15T11:00:27.027Z,45.59
2023-05-15T11:02:57.214Z,45.39
2023-05-15T11:05:25.877Z,44.64
2023-05-15T11:08:27.516Z,45.20
2023-05-15T11:10:56.256Z,44.67
2023-05-15T11:13:25.633Z,45.68
2023-05-15T11:15:53.656Z,45.32
2023-05-15T11:18:21.649Z,45.71
2023-05-15T11:21:09.004Z,46.18
2023-05-15T11:23:41.325Z,45.51
2023-05-15T11:26:09.392Z,45.11
2023-05-15T11:28:46.896Z,45.29
2023-05-15T11:31:15.596Z,45.17
2023-05-15T11:33:43.581Z,44.41
2023-05-15T11:36:11.800Z,44.36
2023-05-15T11:38:40.835Z,45.02
2023-05-15T11:41:18.813Z,44.61
2023-05-15T11:43:48.722Z,44.64
2023-05-15T11:46:16.931Z,44.83
2023-05-15T11:48:45.356Z,45.18
2023-05-15T11:51:17.544Z,45.19
2023-05-15T11:53:45.653Z,45.09
2023-05-15T11:56:14.922Z,44.81
2023-05-15T11:58:44.032Z,45.14
2023-05-15T12:01:13.425Z,45.57
2023-05-15T12:03:41.596Z,45.37
2023-05-15T12:06:09.789Z,45.63
2023-05-15T12:08:38.607Z,45.06
2023-05-15T12:11:06.995Z,45.06
2023-05-15T12:13:35.520Z,45.38
2023-05-15T12:16:03.988Z,45.71
2023-05-15T12:18:33.665Z,45.63
2023-05-15T12:21:01.733Z,45.10
2023-05-15T12:23:29.723Z,45.11
2023-05-15T12:25:59.495Z,45.23
2023-05-15T12:28:27.698Z,44.98
2023-05-15T12:30:55.759Z,44.98
2023-05-15T12:33:24.627Z,45.05
2023-05-15T12:35:57.420Z,44.79
2023-05-15T12:38:28.221Z,45.31
2023-05-15T12:40:57.195Z,44.96
2023-05-15T12:43:25.969Z,45.04
2023-05-15T12:45:54.202Z,45.04
2023-05-15T12:48:22.676Z,45.30
2023-05-15T12:50:51.655Z,44.82
2023-05-15T12:53:22.473Z,44.69
2023-05-15T12:55:50.519Z,45.39
2023-05-15T12:58:19.205Z,44.78
2023-05-15T13:00:48.082Z,45.04
2023-05-15T13:03:16.138Z,45.40
2023-05-15T13:05:44.810Z,45.19
2023-05-15T13:08:16.347Z,45.01
2023-05-15T13:10:45.792Z,45.13
2023-05-15T13:13:13.759Z,45.27
2023-05-15T13:15:43.515Z,44.78
2023-05-15T13:18:12.016Z,45.58
2023-05-15T13:20:41.500Z,44.95
2023-05-15T13:23:09.835Z,45.14
2023-05-15T13:25:39.133Z,45.33
2023-05-15T13:28:08.634Z,45.35
2023-05-15T13:30:36.694Z,45.39
2023-05-15T13:33:05.071Z,45.68
2023-05-15T13:35:33.128Z,45.27
2023-05-15T13:38:01.555Z,45.29
2023-05-15T13:40:29.602Z,45.65
2023-05-15T13:42:57.654Z,45.54
2023-05-15T13:45:27.029Z,45.16
2023-05-15T13:47:55.806Z,45.23
2023-05-15T13:50:24.020Z,45.51
2023-05-15T13:52:54.381Z,45.49
2023-05-15T13:55:23.305Z,45.21
2023-05-15T13:57:52.157Z,45.39
2023-05-15T14:00:21.658Z,45.79
2023-05-15T14:02:51.126Z,45.51
2023-05-15T14:05:19.152Z,45.73
2023-05-15T14:07:47.297Z,45.46
2023-05-15T14:10:15.317Z,45.10
2023-05-15T14:12:43.729Z,45.87
2023-05-15T14:15:12.895Z,45.55
2023-05-15T14:17:41.055Z,45.35
2023-05-15T14:20:11.817Z,45.48
2023-05-15T14:22:41.757Z,45.68
2023-05-15T14:25:10.637Z,45.63
2023-05-15T14:27:38.697Z,45.51
2023-05-15T14:30:08.092Z,45.50
2023-05-15T14:32:36.272Z,45.13
2023-05-15T14:35:04.734Z,45.72
2023-05-15T14:37:34.200Z,45.16
2023-05-15T14:40:02.253Z,45.12
2023-05-15T14:42:30.681Z,44.89
2023-05-15T14:44:58.664Z,45.36
2023-05-15T14:47:28.272Z,45.68
2023-05-15T14:49:56.525Z,44.90
2023-05-15T14:52:24.561Z,45.04
2023-05-15T14:55:07.748Z,45.54
2023-05-15T14:57:36.414Z,45.27
2023-05-15T15:00:05.993Z,45.10
2023-05-15T15:02:34.258Z,45.24
2023-05-15T15:05:02.300Z,45.06
2023-05-15T15:07:30.542Z,45.82
2023-05-15T15:09:59.955Z,45.41
2023-05-15T15:12:27.973Z,45.47
2023-05-15T15:14:55.957Z,45.58
2023-05-15T15:17:23.966Z,45.51
2023-05-15T15:19:52.022Z,45.56
2023-05-15T15:22:20.060Z,46.03
2023-05-15T15:24:48.061Z,46.03
2023-05-15T15:27:17.506Z,45.77
2023-05-15T15:29:45.689Z,46.08
2023-05-15T15:32:13.760Z,45.71
2023-05-15T15:34:41.882Z,45.78
2023-05-15T15:37:09.902Z,45.65
2023-05-15T15:39:37.938Z,45.55
2023-05-15T15:42:06.713Z,46.04
2023-05-15T15:44:36.132Z,45.53
2023-05-15T15:47:04.222Z,45.62
2023-05-15T15:49:32.281Z,46.00
2023-05-15T15:52:00.257Z,45.82
2023-05-15T15:54:28.953Z,45.96
2023-05-15T15:56:56.949Z,45.57
2023-05-15T15:59:24.961Z,45.79
2023-05-15T16:01:54.345Z,45.60
2023-05-15T16:04:22.926Z,45.19
2023-05-15T16:06:50.985Z,45.66
2023-05-15T16:09:20.266Z,45.58
2023-05-15T16:11:48.257Z,45.58
2023-05-15T16:14:16.327Z,45.22
2023-05-15T16:16:44.455Z,45.79
2023-05-15T16:19:14.121Z,45.85
2023-05-15T16:21:42.119Z,45.18
2023-05-15T16:24:10.239Z,45.15
2023-05-15T16:26:38.397Z,45.57
2023-05-15T16:29:06.406Z,45.29
2023-05-15T16:31:34.465Z,45.13
2023-05-15T16:34:03.789Z,45.47
2023-05-15T16:36:33.382Z,44.79
2023-05-15T16:39:01.548Z,44.58
2023-05-15T16:41:29.608Z,45.29
2023-05-15T16:43:57.631Z,45.11
2023-05-15T16:46:25.647Z,44.79
2023-05-15T16:48:53.708Z,44.53
2023-05-15T16:51:21.690Z,44.68
2023-05-15T16:53:52.691Z,44.57
2023-05-15T16:56:20.907Z,44.40
2023-05-15T16:58:48.912Z,44.41
2023-05-15T17:01:17.048Z,44.40
2023-05-15T17:03:45.257Z,44.35
2023-05-15T17:06:13.426Z,44.07
2023-05-15T17:08:42.675Z,43.86
2023-05-15T17:11:13.405Z,43.66
2023-05-15T17:13:41.485Z,44.01
2023-05-15T17:16:09.836Z,44.17
2023-05-15T17:18:39.964Z,44.54
2023-05-15T17:21:08.084Z,44.58
2023-05-15T17:23:36.072Z,44.04
2023-05-15T17:26:04.271Z,44.62
2023-05-15T17:28:35.869Z,44.71
2023-05-15T17:31:10.101Z,44.47
2023-05-15T17:33:38.151Z,44.69
2023-05-15T17:36:06.406Z,44.44
2023-05-15T17:38:34.575Z,45.04
2023-05-15T17:41:03.167Z,45.07
2023-05-15T17:43:31.328Z,45.10
2023-05-15T17:46:00.764Z,44.60
2023-05-15T17:48:28.885Z,44.97
2023-05-15T17:50:56.883Z,44.04
2023-05-15T17:53:25.387Z,43.95
2023-05-15T17:55:53.409Z,43.20
2023-05-15T17:58:21.925Z,43.27
2023-05-15T18:00:49.967Z,43.13
2023-05-15T18:03:19.511Z,43.43
2023-05-15T18:05:47.745Z,43.93
2023-05-15T18:08:15.999Z,43.66
2023-05-15T18:10:44.006Z,43.80
2023-05-15T18:13:12.073Z,44.09
2023-05-15T18:15:40.133Z,43.47
2023-05-15T18:18:08.233Z,43.94
2023-05-15T18:20:37.659Z,43.82
2023-05-15T18:23:05.728Z,44.61
2023-05-15T18:25:36.803Z,44.56
2023-05-15T18:28:04.958Z,44.84
2023-05-15T18:30:32.941Z,45.05
2023-05-15T18:33:01.074Z,45.17
2023-05-15T18:35:29.714Z,45.09
2023-05-15T18:37:59.215Z,44.94
2023-05-15T18:40:27.345Z,45.69
2023-05-15T18:42:56.207Z,46.12
2023-05-15T18:45:24.510Z,45.96
2023-05-15T18:47:52.788Z,46.06
2023-05-15T18:50:20.989Z,46.28
2023-05-15T18:52:49.018Z,46.75
2023-05-15T18:55:18.731Z,46.40
2023-05-15T18:57:46.822Z,46.07
2023-05-15T19:00:23.740Z,45.99
2023-05-15T19:03:01.951Z,45.83
2023-05-15T19:05:32.267Z,46.53
2023-05-15T19:08:00.594Z,46.12
2023-05-15T19:10:30.699Z,46.19
2023-05-15T19:12:58.829Z,46.20
2023-05-15T19:15:26.912Z,46.28
2023-05-15T19:17:54.921Z,46.28
2023-05-15T19:20:22.983Z,46.91
2023-05-15T19:22:51.045Z,46.18
2023-05-15T19:25:19.068Z,46.71
2023-05-15T19:27:48.419Z,46.70
2023-05-15T19:30:16.561Z,46.80
2023-05-15T19:32:45.167Z,46.66
2023-05-15T19:35:13.250Z,47.16
2023-05-15T19:37:41.240Z,46.83
2023-05-15T19:40:10.285Z,46.90
2023-05-15T19:42:38.274Z,46.94
2023-05-15T19:45:09.102Z,46.78
2023-05-15T19:47:37.285Z,46.99
2023-05-15T19:50:06.392Z,47.24
2023-05-15T19:52:34.383Z,46.84
2023-05-15T19:55:02.394Z,46.69
2023-05-15T19:57:30.430Z,46.94
2023-05-15T19:59:58.473Z,47.41
2023-05-15T20:02:27.923Z,46.97
2023-05-15T20:04:56.037Z,47.05
2023-05-15T20:07:23.996Z,47.17
2023-05-15T20:09:52.143Z,47.44
2023-05-15T20:12:20.106Z,47.42
2023-05-15T20:14:49.848Z,47.56
2023-05-15T20:17:18.238Z,46.74
2023-05-15T20:19:48.085Z,47.02
2023-05-15T20:22:16.100Z,47.20
2023-05-15T20:24:45.160Z,47.02
2023-05-15T20:27:13.114Z,47.06
2023-05-15T20:29:41.160Z,47.43
2023-05-15T20:32:09.184Z,47.13
2023-05-15T20:34:37.677Z,47.55
2023-05-15T20:37:07.331Z,47.63
2023-05-15T20:39:35.318Z,46.97
2023-05-15T20:42:05.902Z,47.24
2023-05-15T20:44:36.383Z,47.23
2023-05-15T20:47:04.631Z,46.94
2023-05-15T20:49:32.613Z,47.31
2023-05-15T20:52:01.552Z,47.28
2023-05-15T20:54:30.930Z,47.67
2023-05-15T20:56:58.911Z,47.67
2023-05-15T20:59:26.905Z,47.42
2023-05-15T21:01:54.895Z,47.49
2023-05-15T21:04:22.919Z,47.33
2023-05-15T21:06:50.883Z,47.27
2023-05-15T21:09:18.918Z,47.34
2023-05-15T21:11:48.330Z,47.49
2023-05-15T21:14:16.390Z,47.14
2023-05-15T21:16:44.502Z,47.46
2023-05-15T21:19:12.786Z,47.69
2023-05-15T21:21:40.851Z,47.39
2023-05-15T21:24:08.994Z,47.18
2023-05-15T21:26:36.972Z,47.40
2023-05-15T21:29:06.387Z,47.48
2023-05-15T21:31:34.544Z,47.47
2023-05-15T21:34:02.588Z,47.34
2023-05-15T21:36:31.303Z,47.45
2023-05-15T21:38:59.295Z,47.71
2023-05-15T21:41:27.280Z,47.09
2023-05-15T21:43:55.308Z,47.31
2023-05-15T21:46:24.738Z,47.42
2023-05-15T21:48:52.987Z,47.78
2023-05-15T21:51:21.036Z,47.23
2023-05-15T21:53:49.094Z,47.70
2023-05-15T21:56:17.093Z,47.59
2023-05-15T21:58:45.162Z,47.41
2023-05-15T22:01:13.674Z,47.54
2023-05-15T22:03:43.197Z,47.72
2023-05-15T22:06:11.308Z,47.89
2023-05-15T22:08:39.351Z,47.53
2023-05-15T22:11:08.006Z,47.39
2023-05-15T22:13:36.003Z,47.61
2023-05-15T22:16:03.966Z,47.89
2023-05-15T22:18:32.227Z,47.39
2023-05-15T22:21:01.868Z,47.61
2023-05-15T22:23:29.893Z,47.57
2023-05-15T22:25:57.847Z,47.47
2023-05-15T22:28:26.130Z,47.86
2023-05-15T22:30:54.089Z,47.84
2023-05-15T22:33:24.253Z,47.72
2023-05-15T22:35:52.865Z,47.47
2023-05-15T22:38:22.277Z,47.93
2023-05-15T22:40:52.018Z,47.40
2023-05-15T22:43:20.006Z,47.74
2023-05-15T22:45:48.069Z,47.48
2023-05-15T22:48:16.499Z,47.58
2023-05-15T22:50:44.859Z,47.70
2023-05-15T22:53:12.839Z,47.75
2023-05-15T22:55:42.206Z,47.75
2023-05-15T22:58:10.192Z,47.84
2023-05-15T23:00:38.137Z,47.67
2023-05-15T23:03:06.258Z,47.62
2023-05-15T23:05:34.300Z,47.55
2023-05-15T23:08:02.324Z,47.91
2023-05-15T23:10:30.332Z,47.70
2023-05-15T23:12:59.774Z,48.19
2023-05-15T23:15:28.007Z,47.99
2023-05-15T23:17:56.078Z,47.70
2023-05-15T23:20:24.197Z,47.52
2023-05-15T23:22:52.275Z,47.83
2023-05-15T23:25:20.400Z,47.89
2023-05-15T23:27:48.443Z,47.81
2023-05-15T23:30:18.193Z,47.81
2023-05-15T23:32:46.290Z,47.75
2023-05-15T23:35:14.349Z,47.88
2023-05-15T23:37:42.359Z,47.57
2023-05-15T23:40:11.172Z,47.71
2023-05-15T23:42:39.156Z,47.89
2023-05-15T23:45:08.580Z,47.69
2023-05-15T23:47:37.989Z,47.87
2023-05-15T23:50:07.294Z,47.68
2023-05-15T23:52:35.251Z,47.97
2023-05-15T23:55:03.281Z,47.59
2023-05-15T23:57:31.341Z,47.62
2023-05-15T23:59:59.502Z,47.62
